sensor_id;sensor_type;location;lat;lon;timestamp;P1;durP1;ratioP1;P2;durP2;ratioP2
68455;SDS011;55437;55.046;38.838;2022-12-19T00:01:03;23.73;;;11.07;;
68455;SDS011;55437;55.046;38.838;2022-12-19T00:03:30;24.90;;;10.10;;
68455;SDS011;55437;55.046;38.838;2022-12-19T00:05:59;19.05;;;10.15;;
68455;SDS011;55437;55.046;38.838;2022-12-19T00:08:28;25.45;;;9.18;;
68455;SDS011;55437;55.046;38.838;2022-12-19T00:10:58;22.58;;;7.63;;
68455;SDS011;55437;55.046;38.838;2022-12-19T00:13:26;24.50;;;10.57;;
68455;SDS011;55437;55.046;38.838;2022-12-19T00:15:52;26.02;;;9.85;;
68455;SDS011;55437;55.046;38.838;2022-12-19T00:18:18;30.05;;;11.38;;
68455;SDS011;55437;55.046;38.838;2022-12-19T00:20:44;31.05;;;12.02;;
68455;SDS011;55437;55.046;38.838;2022-12-19T00:23:19;20.70;;;10.00;;
68455;SDS011;55437;55.046;38.838;2022-12-19T00:25:44;26.42;;;11.27;;
68455;SDS011;55437;55.046;38.838;2022-12-19T00:28:10;28.50;;;11.07;;
68455;SDS011;55437;55.046;38.838;2022-12-19T00:30:36;27.58;;;12.45;;
68455;SDS011;55437;55.046;38.838;2022-12-19T00:33:01;24.20;;;10.05;;
68455;SDS011;55437;55.046;38.838;2022-12-19T00:35:27;16.33;;;8.30;;
68455;SDS011;55437;55.046;38.838;2022-12-19T00:37:53;21.50;;;10.20;;
68455;SDS011;55437;55.046;38.838;2022-12-19T00:40:18;25.05;;;11.90;;
68455;SDS011;55437;55.046;38.838;2022-12-19T00:42:44;22.65;;;11.52;;
68455;SDS011;55437;55.046;38.838;2022-12-19T00:45:10;20.10;;;9.10;;
68455;SDS011;55437;55.046;38.838;2022-12-19T00:47:35;21.98;;;10.20;;
68455;SDS011;55437;55.046;38.838;2022-12-19T00:50:02;29.65;;;11.23;;
68455;SDS011;55437;55.046;38.838;2022-12-19T00:52:28;28.40;;;10.75;;
68455;SDS011;55437;55.046;38.838;2022-12-19T00:54:55;24.83;;;9.15;;
68455;SDS011;55437;55.046;38.838;2022-12-19T00:57:21;23.20;;;10.32;;
68455;SDS011;55437;55.046;38.838;2022-12-19T00:59:47;28.02;;;11.05;;
68455;SDS011;55437;55.046;38.838;2022-12-19T01:02:12;23.48;;;11.60;;
68455;SDS011;55437;55.046;38.838;2022-12-19T01:04:38;22.52;;;9.27;;
68455;SDS011;55437;55.046;38.838;2022-12-19T01:07:04;24.10;;;10.05;;
68455;SDS011;55437;55.046;38.838;2022-12-19T01:09:33;20.45;;;8.65;;
68455;SDS011;55437;55.046;38.838;2022-12-19T01:12:01;21.73;;;9.38;;
68455;SDS011;55437;55.046;38.838;2022-12-19T01:14:45;16.95;;;6.60;;
68455;SDS011;55437;55.046;38.838;2022-12-19T01:17:11;16.52;;;7.07;;
68455;SDS011;55437;55.046;38.838;2022-12-19T01:19:37;19.02;;;9.43;;
68455;SDS011;55437;55.046;38.838;2022-12-19T01:22:02;18.08;;;8.80;;
68455;SDS011;55437;55.046;38.838;2022-12-19T01:24:28;15.98;;;7.60;;
68455;SDS011;55437;55.046;38.838;2022-12-19T01:26:54;20.48;;;9.18;;
68455;SDS011;55437;55.046;38.838;2022-12-19T01:29:19;20.08;;;9.38;;
68455;SDS011;55437;55.046;38.838;2022-12-19T01:31:46;18.27;;;8.05;;
68455;SDS011;55437;55.046;38.838;2022-12-19T01:34:12;19.42;;;12.88;;
68455;SDS011;55437;55.046;38.838;2022-12-19T01:36:37;15.95;;;7.47;;
68455;SDS011;55437;55.046;38.838;2022-12-19T01:39:03;17.80;;;8.98;;
68455;SDS011;55437;55.046;38.838;2022-12-19T01:41:29;19.40;;;8.88;;
68455;SDS011;55437;55.046;38.838;2022-12-19T01:43:58;17.63;;;8.15;;
68455;SDS011;55437;55.046;38.838;2022-12-19T01:46:37;18.00;;;7.68;;
68455;SDS011;55437;55.046;38.838;2022-12-19T01:49:08;17.60;;;8.10;;
68455;SDS011;55437;55.046;38.838;2022-12-19T01:51:41;16.88;;;8.32;;
68455;SDS011;55437;55.046;38.838;2022-12-19T01:54:12;14.55;;;7.53;;
68455;SDS011;55437;55.046;38.838;2022-12-19T01:56:48;15.77;;;7.50;;
68455;SDS011;55437;55.046;38.838;2022-12-19T01:59:18;18.05;;;8.30;;
68455;SDS011;55437;55.046;38.838;2022-12-19T02:01:49;16.77;;;8.30;;
68455;SDS011;55437;55.046;38.838;2022-12-19T02:04:23;15.40;;;7.38;;
68455;SDS011;55437;55.046;38.838;2022-12-19T02:06:51;19.10;;;8.05;;
68455;SDS011;55437;55.046;38.838;2022-12-19T02:09:22;14.27;;;7.43;;
68455;SDS011;55437;55.046;38.838;2022-12-19T02:11:49;14.68;;;8.48;;
68455;SDS011;55437;55.046;38.838;2022-12-19T02:14:16;13.10;;;7.65;;
68455;SDS011;55437;55.046;38.838;2022-12-19T02:22:24;13.85;;;6.93;;
68455;SDS011;55437;55.046;38.838;2022-12-19T02:33:43;13.15;;;6.70;;
68455;SDS011;55437;55.046;38.838;2022-12-19T02:36:23;14.88;;;8.30;;
68455;SDS011;55437;55.046;38.838;2022-12-19T02:38:59;12.55;;;6.70;;
68455;SDS011;55437;55.046;38.838;2022-12-19T02:41:50;11.05;;;6.80;;
68455;SDS011;55437;55.046;38.838;2022-12-19T02:44:23;12.82;;;7.00;;
68455;SDS011;55437;55.046;38.838;2022-12-19T02:46:54;13.45;;;6.38;;
68455;SDS011;55437;55.046;38.838;2022-12-19T02:49:23;12.07;;;6.35;;
68455;SDS011;55437;55.046;38.838;2022-12-19T02:51:49;12.82;;;6.80;;
68455;SDS011;55437;55.046;38.838;2022-12-19T02:54:15;15.63;;;6.78;;
68455;SDS011;55437;55.046;38.838;2022-12-19T02:56:45;13.18;;;6.70;;
68455;SDS011;55437;55.046;38.838;2022-12-19T02:59:24;15.60;;;7.25;;
68455;SDS011;55437;55.046;38.838;2022-12-19T03:04:38;12.75;;;5.57;;
68455;SDS011;55437;55.046;38.838;2022-12-19T03:10:08;11.57;;;6.60;;
68455;SDS011;55437;55.046;38.838;2022-12-19T03:12:48;11.15;;;6.22;;
68455;SDS011;55437;55.046;38.838;2022-12-19T03:15:18;14.43;;;8.15;;
68455;SDS011;55437;55.046;38.838;2022-12-19T03:17:45;15.18;;;7.22;;
68455;SDS011;55437;55.046;38.838;2022-12-19T03:20:21;13.65;;;7.32;;
68455;SDS011;55437;55.046;38.838;2022-12-19T03:22:52;14.60;;;6.63;;
68455;SDS011;55437;55.046;38.838;2022-12-19T03:25:18;13.68;;;7.80;;
68455;SDS011;55437;55.046;38.838;2022-12-19T03:27:46;13.77;;;6.00;;
68455;SDS011;55437;55.046;38.838;2022-12-19T03:30:14;13.32;;;4.43;;
68455;SDS011;55437;55.046;38.838;2022-12-19T03:32:40;15.48;;;7.50;;
68455;SDS011;55437;55.046;38.838;2022-12-19T03:37:46;17.60;;;8.38;;
68455;SDS011;55437;55.046;38.838;2022-12-19T03:40:16;11.88;;;4.85;;
68455;SDS011;55437;55.046;38.838;2022-12-19T03:42:45;12.18;;;7.03;;
68455;SDS011;55437;55.046;38.838;2022-12-19T03:48:20;12.65;;;6.80;;
68455;SDS011;55437;55.046;38.838;2022-12-19T03:59:11;12.90;;;5.88;;
68455;SDS011;55437;55.046;38.838;2022-12-19T04:01:43;13.15;;;6.72;;
68455;SDS011;55437;55.046;38.838;2022-12-19T04:04:10;13.63;;;6.38;;
68455;SDS011;55437;55.046;38.838;2022-12-19T04:06:38;14.70;;;7.00;;
68455;SDS011;55437;55.046;38.838;2022-12-19T04:09:07;13.23;;;7.13;;
68455;SDS011;55437;55.046;38.838;2022-12-19T04:11:36;15.85;;;6.97;;
68455;SDS011;55437;55.046;38.838;2022-12-19T04:14:09;12.77;;;7.25;;
68455;SDS011;55437;55.046;38.838;2022-12-19T04:16:41;15.25;;;10.50;;
68455;SDS011;55437;55.046;38.838;2022-12-19T04:19:29;11.32;;;6.25;;
68455;SDS011;55437;55.046;38.838;2022-12-19T04:22:04;15.25;;;6.57;;
68455;SDS011;55437;55.046;38.838;2022-12-19T04:24:36;11.13;;;5.88;;
68455;SDS011;55437;55.046;38.838;2022-12-19T04:27:06;13.15;;;5.70;;
68455;SDS011;55437;55.046;38.838;2022-12-19T04:29:35;13.95;;;6.63;;
68455;SDS011;55437;55.046;38.838;2022-12-19T04:32:05;12.05;;;6.20;;
68455;SDS011;55437;55.046;38.838;2022-12-19T04:34:32;13.45;;;7.10;;
68455;SDS011;55437;55.046;38.838;2022-12-19T04:36:58;14.35;;;6.68;;
68455;SDS011;55437;55.046;38.838;2022-12-19T04:39:26;12.75;;;5.85;;
68455;SDS011;55437;55.046;38.838;2022-12-19T04:41:52;13.38;;;7.13;;
68455;SDS011;55437;55.046;38.838;2022-12-19T04:44:17;14.38;;;6.78;;
68455;SDS011;55437;55.046;38.838;2022-12-19T04:46:43;15.90;;;7.38;;
68455;SDS011;55437;55.046;38.838;2022-12-19T04:49:13;13.43;;;7.03;;
68455;SDS011;55437;55.046;38.838;2022-12-19T04:51:39;12.50;;;6.88;;
68455;SDS011;55437;55.046;38.838;2022-12-19T04:54:12;13.77;;;7.72;;
68455;SDS011;55437;55.046;38.838;2022-12-19T04:56:38;11.95;;;4.75;;
68455;SDS011;55437;55.046;38.838;2022-12-19T04:59:03;13.55;;;6.72;;
68455;SDS011;55437;55.046;38.838;2022-12-19T05:01:29;13.13;;;6.70;;
68455;SDS011;55437;55.046;38.838;2022-12-19T05:03:54;12.57;;;7.15;;
68455;SDS011;55437;55.046;38.838;2022-12-19T05:06:21;12.80;;;6.55;;
68455;SDS011;55437;55.046;38.838;2022-12-19T05:08:47;14.38;;;6.90;;
68455;SDS011;55437;55.046;38.838;2022-12-19T05:11:13;13.20;;;6.20;;
68455;SDS011;55437;55.046;38.838;2022-12-19T05:13:40;13.18;;;5.60;;
68455;SDS011;55437;55.046;38.838;2022-12-19T05:16:07;12.48;;;6.13;;
68455;SDS011;55437;55.046;38.838;2022-12-19T05:18:35;11.27;;;6.13;;
68455;SDS011;55437;55.046;38.838;2022-12-19T05:21:02;14.60;;;5.80;;
68455;SDS011;55437;55.046;38.838;2022-12-19T05:23:28;11.57;;;5.40;;
68455;SDS011;55437;55.046;38.838;2022-12-19T05:25:57;12.70;;;5.53;;
68455;SDS011;55437;55.046;38.838;2022-12-19T05:28:23;12.63;;;6.50;;
68455;SDS011;55437;55.046;38.838;2022-12-19T05:30:49;11.40;;;5.90;;
68455;SDS011;55437;55.046;38.838;2022-12-19T05:33:15;12.88;;;5.22;;
68455;SDS011;55437;55.046;38.838;2022-12-19T09:05:25;11.07;;;5.55;;
68455;SDS011;55437;55.046;38.838;2022-12-19T09:07:51;13.57;;;6.35;;
68455;SDS011;55437;55.046;38.838;2022-12-19T09:10:18;12.60;;;4.68;;
68455;SDS011;55437;55.046;38.838;2022-12-19T09:12:44;9.95;;;4.55;;
68455;SDS011;55437;55.046;38.838;2022-12-19T09:15:10;9.80;;;5.32;;
68455;SDS011;55437;55.046;38.838;2022-12-19T09:17:37;13.02;;;6.15;;
68455;SDS011;55437;55.046;38.838;2022-12-19T09:20:05;13.75;;;5.88;;
68455;SDS011;55437;55.046;38.838;2022-12-19T09:22:31;12.82;;;6.43;;
68455;SDS011;55437;55.046;38.838;2022-12-19T09:24:57;14.68;;;6.15;;
68455;SDS011;55437;55.046;38.838;2022-12-19T09:27:41;13.60;;;6.65;;
68455;SDS011;55437;55.046;38.838;2022-12-19T09:30:08;14.55;;;6.68;;
68455;SDS011;55437;55.046;38.838;2022-12-19T09:32:36;15.52;;;7.30;;
68455;SDS011;55437;55.046;38.838;2022-12-19T09:35:02;12.05;;;6.10;;
68455;SDS011;55437;55.046;38.838;2022-12-19T09:37:30;12.80;;;6.72;;
68455;SDS011;55437;55.046;38.838;2022-12-19T09:39:56;13.38;;;7.32;;
68455;SDS011;55437;55.046;38.838;2022-12-19T09:47:46;12.27;;;6.43;;
68455;SDS011;55437;55.046;38.838;2022-12-19T09:53:15;13.13;;;6.32;;
68455;SDS011;55437;55.046;38.838;2022-12-19T09:55:46;13.60;;;7.45;;
68455;SDS011;55437;55.046;38.838;2022-12-19T10:00:56;13.55;;;7.05;;
68455;SDS011;55437;55.046;38.838;2022-12-19T10:03:29;14.02;;;7.45;;
68455;SDS011;55437;55.046;38.838;2022-12-19T10:09:03;10.93;;;6.32;;
68455;SDS011;55437;55.046;38.838;2022-12-19T10:14:55;14.50;;;6.90;;
68455;SDS011;55437;55.046;38.838;2022-12-19T10:26:15;13.88;;;6.68;;
68455;SDS011;55437;55.046;38.838;2022-12-19T10:36:48;14.75;;;5.90;;
68455;SDS011;55437;55.046;38.838;2022-12-19T10:42:26;15.15;;;9.20;;
68455;SDS011;55437;55.046;38.838;2022-12-19T10:45:00;17.80;;;7.60;;
68455;SDS011;55437;55.046;38.838;2022-12-19T10:47:33;16.08;;;7.07;;
68455;SDS011;55437;55.046;38.838;2022-12-19T10:49:58;16.10;;;7.65;;
68455;SDS011;55437;55.046;38.838;2022-12-19T10:52:47;14.32;;;7.70;;
68455;SDS011;55437;55.046;38.838;2022-12-19T10:55:32;15.60;;;7.28;;
68455;SDS011;55437;55.046;38.838;2022-12-19T11:02:27;12.63;;;5.65;;
68455;SDS011;55437;55.046;38.838;2022-12-19T11:04:58;13.80;;;5.63;;
68455;SDS011;55437;55.046;38.838;2022-12-19T11:07:24;15.63;;;7.85;;
68455;SDS011;55437;55.046;38.838;2022-12-19T11:09:49;13.77;;;6.75;;
68455;SDS011;55437;55.046;38.838;2022-12-19T11:12:16;14.88;;;7.47;;
68455;SDS011;55437;55.046;38.838;2022-12-19T11:22:58;19.20;;;7.70;;
68455;SDS011;55437;55.046;38.838;2022-12-19T11:25:40;15.02;;;7.10;;
68455;SDS011;55437;55.046;38.838;2022-12-19T11:30:40;18.05;;;8.00;;
68455;SDS011;55437;55.046;38.838;2022-12-19T11:33:12;15.48;;;7.75;;
68455;SDS011;55437;55.046;38.838;2022-12-19T11:35:47;16.15;;;7.75;;
68455;SDS011;55437;55.046;38.838;2022-12-19T11:42:24;16.55;;;7.30;;
68455;SDS011;55437;55.046;38.838;2022-12-19T11:47:57;17.15;;;7.45;;
68455;SDS011;55437;55.046;38.838;2022-12-19T11:50:36;18.15;;;8.07;;
68455;SDS011;55437;55.046;38.838;2022-12-19T11:53:22;13.43;;;6.22;;
68455;SDS011;55437;55.046;38.838;2022-12-19T11:55:56;16.98;;;8.80;;
68455;SDS011;55437;55.046;38.838;2022-12-19T11:58:27;15.00;;;7.00;;
68455;SDS011;55437;55.046;38.838;2022-12-19T12:06:02;15.57;;;7.05;;
68455;SDS011;55437;55.046;38.838;2022-12-19T12:08:38;14.73;;;5.80;;
68455;SDS011;55437;55.046;38.838;2022-12-19T12:14:11;16.85;;;10.15;;
68455;SDS011;55437;55.046;38.838;2022-12-19T12:25:04;16.90;;;8.20;;
68455;SDS011;55437;55.046;38.838;2022-12-19T12:30:20;15.25;;;7.88;;
68455;SDS011;55437;55.046;38.838;2022-12-19T12:35:47;17.10;;;8.02;;
68455;SDS011;55437;55.046;38.838;2022-12-19T12:44:20;18.17;;;8.68;;
68455;SDS011;55437;55.046;38.838;2022-12-19T12:46:51;19.85;;;8.77;;
68455;SDS011;55437;55.046;38.838;2022-12-19T12:49:36;16.05;;;8.15;;
68455;SDS011;55437;55.046;38.838;2022-12-19T12:52:07;20.42;;;8.88;;
68455;SDS011;55437;55.046;38.838;2022-12-19T12:54:38;20.95;;;9.13;;
68455;SDS011;55437;55.046;38.838;2022-12-19T13:00:26;18.27;;;8.77;;
68455;SDS011;55437;55.046;38.838;2022-12-19T13:02:48;20.77;;;9.60;;
68455;SDS011;55437;55.046;38.838;2022-12-19T13:08:54;21.10;;;9.27;;
68455;SDS011;55437;55.046;38.838;2022-12-19T13:14:03;21.27;;;10.27;;
68455;SDS011;55437;55.046;38.838;2022-12-19T13:16:49;20.58;;;9.55;;
68455;SDS011;55437;55.046;38.838;2022-12-19T13:24:48;16.40;;;8.98;;
68455;SDS011;55437;55.046;38.838;2022-12-19T13:33:10;17.42;;;7.07;;
68455;SDS011;55437;55.046;38.838;2022-12-19T13:40:14;19.15;;;9.18;;
68455;SDS011;55437;55.046;38.838;2022-12-19T13:45:52;17.73;;;8.80;;
68455;SDS011;55437;55.046;38.838;2022-12-19T13:48:28;16.58;;;6.97;;
68455;SDS011;55437;55.046;38.838;2022-12-19T13:50:55;19.15;;;9.20;;
68455;SDS011;55437;55.046;38.838;2022-12-19T13:53:24;18.85;;;9.27;;
68455;SDS011;55437;55.046;38.838;2022-12-19T13:55:52;20.23;;;9.00;;
68455;SDS011;55437;55.046;38.838;2022-12-19T13:58:32;16.00;;;6.78;;
68455;SDS011;55437;55.046;38.838;2022-12-19T14:01:27;21.98;;;8.75;;
68455;SDS011;55437;55.046;38.838;2022-12-19T14:03:57;18.80;;;8.40;;
68455;SDS011;55437;55.046;38.838;2022-12-19T14:06:29;27.58;;;14.50;;
68455;SDS011;55437;55.046;38.838;2022-12-19T14:11:59;16.73;;;8.13;;
68455;SDS011;55437;55.046;38.838;2022-12-19T14:14:28;20.35;;;9.85;;
68455;SDS011;55437;55.046;38.838;2022-12-19T14:17:20;20.10;;;10.35;;
68455;SDS011;55437;55.046;38.838;2022-12-19T14:19:48;16.95;;;9.65;;
68455;SDS011;55437;55.046;38.838;2022-12-19T14:24:41;17.13;;;6.60;;
68455;SDS011;55437;55.046;38.838;2022-12-19T14:27:21;15.57;;;7.90;;
68455;SDS011;55437;55.046;38.838;2022-12-19T14:29:55;15.65;;;8.20;;
68455;SDS011;55437;55.046;38.838;2022-12-19T14:32:22;16.10;;;8.38;;
68455;SDS011;55437;55.046;38.838;2022-12-19T14:34:49;19.60;;;8.73;;
68455;SDS011;55437;55.046;38.838;2022-12-19T14:37:56;18.75;;;9.80;;
68455;SDS011;55437;55.046;38.838;2022-12-19T14:42:48;19.52;;;9.68;;
68455;SDS011;55437;55.046;38.838;2022-12-19T14:48:22;16.02;;;8.43;;
68455;SDS011;55437;55.046;38.838;2022-12-19T14:51:03;14.73;;;7.00;;
68455;SDS011;55437;55.046;38.838;2022-12-19T14:53:36;17.08;;;8.27;;
68455;SDS011;55437;55.046;38.838;2022-12-19T14:56:13;17.02;;;7.82;;
68455;SDS011;55437;55.046;38.838;2022-12-19T14:58:42;18.40;;;9.05;;
68455;SDS011;55437;55.046;38.838;2022-12-19T15:03:49;17.60;;;8.90;;
68455;SDS011;55437;55.046;38.838;2022-12-19T15:06:19;17.40;;;9.10;;
68455;SDS011;55437;55.046;38.838;2022-12-19T15:08:50;18.95;;;10.20;;
68455;SDS011;55437;55.046;38.838;2022-12-19T15:11:27;17.48;;;8.93;;
68455;SDS011;55437;55.046;38.838;2022-12-19T15:14:22;19.30;;;9.75;;
68455;SDS011;55437;55.046;38.838;2022-12-19T15:16:58;16.80;;;8.43;;
68455;SDS011;55437;55.046;38.838;2022-12-19T15:19:26;20.23;;;10.02;;
68455;SDS011;55437;55.046;38.838;2022-12-19T15:21:52;24.27;;;10.90;;
68455;SDS011;55437;55.046;38.838;2022-12-19T15:24:17;22.15;;;9.18;;
68455;SDS011;55437;55.046;38.838;2022-12-19T15:26:47;17.85;;;7.97;;
68455;SDS011;55437;55.046;38.838;2022-12-19T15:29:17;21.38;;;8.95;;
68455;SDS011;55437;55.046;38.838;2022-12-19T15:31:43;18.35;;;8.55;;
68455;SDS011;55437;55.046;38.838;2022-12-19T15:36:35;17.65;;;10.10;;
68455;SDS011;55437;55.046;38.838;2022-12-19T15:39:01;19.38;;;8.60;;
68455;SDS011;55437;55.046;38.838;2022-12-19T15:41:28;19.80;;;9.43;;
68455;SDS011;55437;55.046;38.838;2022-12-19T15:43:54;19.00;;;9.95;;
68455;SDS011;55437;55.046;38.838;2022-12-19T15:46:22;20.05;;;8.40;;
68455;SDS011;55437;55.046;38.838;2022-12-19T15:48:54;21.70;;;11.23;;
68455;SDS011;55437;55.046;38.838;2022-12-19T15:51:20;22.98;;;8.27;;
68455;SDS011;55437;55.046;38.838;2022-12-19T15:53:45;19.60;;;9.90;;
68455;SDS011;55437;55.046;38.838;2022-12-19T15:56:21;19.70;;;10.07;;
68455;SDS011;55437;55.046;38.838;2022-12-19T15:58:51;23.70;;;9.98;;
68455;SDS011;55437;55.046;38.838;2022-12-19T16:01:19;19.45;;;9.88;;
68455;SDS011;55437;55.046;38.838;2022-12-19T16:03:45;19.42;;;9.73;;
68455;SDS011;55437;55.046;38.838;2022-12-19T16:06:12;18.08;;;8.45;;
68455;SDS011;55437;55.046;38.838;2022-12-19T16:08:39;22.63;;;10.95;;
68455;SDS011;55437;55.046;38.838;2022-12-19T16:11:08;16.95;;;8.90;;
68455;SDS011;55437;55.046;38.838;2022-12-19T16:13:41;20.58;;;9.60;;
68455;SDS011;55437;55.046;38.838;2022-12-19T16:18:37;18.80;;;8.98;;
68455;SDS011;55437;55.046;38.838;2022-12-19T16:21:02;18.77;;;8.43;;
68455;SDS011;55437;55.046;38.838;2022-12-19T16:23:28;20.27;;;9.50;;
68455;SDS011;55437;55.046;38.838;2022-12-19T16:25:54;22.40;;;11.23;;
68455;SDS011;55437;55.046;38.838;2022-12-19T16:28:25;21.35;;;9.10;;
68455;SDS011;55437;55.046;38.838;2022-12-19T16:30:58;26.85;;;12.48;;
68455;SDS011;55437;55.046;38.838;2022-12-19T16:33:25;21.60;;;11.30;;
68455;SDS011;55437;55.046;38.838;2022-12-19T16:35:53;19.08;;;9.02;;
68455;SDS011;55437;55.046;38.838;2022-12-19T16:38:20;25.40;;;11.95;;
68455;SDS011;55437;55.046;38.838;2022-12-19T16:40:47;21.55;;;10.35;;
68455;SDS011;55437;55.046;38.838;2022-12-19T16:45:53;19.95;;;9.15;;
68455;SDS011;55437;55.046;38.838;2022-12-19T16:48:20;22.75;;;10.95;;
68455;SDS011;55437;55.046;38.838;2022-12-19T16:50:47;25.88;;;13.25;;
68455;SDS011;55437;55.046;38.838;2022-12-19T16:53:14;20.80;;;10.30;;
68455;SDS011;55437;55.046;38.838;2022-12-19T16:55:41;22.50;;;13.02;;
68455;SDS011;55437;55.046;38.838;2022-12-19T16:58:08;26.73;;;14.23;;
68455;SDS011;55437;55.046;38.838;2022-12-19T17:00:50;24.33;;;12.57;;
68455;SDS011;55437;55.046;38.838;2022-12-19T17:03:36;21.85;;;9.93;;
68455;SDS011;55437;55.046;38.838;2022-12-19T17:06:11;19.85;;;10.70;;
68455;SDS011;55437;55.046;38.838;2022-12-19T17:08:42;18.75;;;9.05;;
68455;SDS011;55437;55.046;38.838;2022-12-19T17:11:16;29.13;;;15.45;;
68455;SDS011;55437;55.046;38.838;2022-12-19T17:13:54;26.88;;;14.60;;
68455;SDS011;55437;55.046;38.838;2022-12-19T17:16:26;21.85;;;12.13;;
68455;SDS011;55437;55.046;38.838;2022-12-19T17:18:53;17.05;;;9.23;;
68455;SDS011;55437;55.046;38.838;2022-12-19T17:21:20;22.50;;;9.32;;
68455;SDS011;55437;55.046;38.838;2022-12-19T17:23:47;19.33;;;9.50;;
68455;SDS011;55437;55.046;38.838;2022-12-19T17:26:14;18.10;;;8.90;;
68455;SDS011;55437;55.046;38.838;2022-12-19T17:28:40;25.15;;;12.30;;
68455;SDS011;55437;55.046;38.838;2022-12-19T17:31:13;17.70;;;9.90;;
68455;SDS011;55437;55.046;38.838;2022-12-19T17:34:04;16.60;;;8.13;;
68455;SDS011;55437;55.046;38.838;2022-12-19T17:36:32;29.92;;;22.17;;
68455;SDS011;55437;55.046;38.838;2022-12-19T17:38:58;20.45;;;10.82;;
68455;SDS011;55437;55.046;38.838;2022-12-19T17:41:24;17.80;;;9.55;;
68455;SDS011;55437;55.046;38.838;2022-12-19T17:43:50;22.52;;;10.48;;
68455;SDS011;55437;55.046;38.838;2022-12-19T17:46:20;23.17;;;13.40;;
68455;SDS011;55437;55.046;38.838;2022-12-19T17:48:48;24.55;;;14.10;;
68455;SDS011;55437;55.046;38.838;2022-12-19T17:51:16;24.10;;;13.55;;
68455;SDS011;55437;55.046;38.838;2022-12-19T17:53:43;23.10;;;11.90;;
68455;SDS011;55437;55.046;38.838;2022-12-19T17:56:13;23.08;;;11.52;;
68455;SDS011;55437;55.046;38.838;2022-12-19T17:58:41;21.88;;;11.20;;
68455;SDS011;55437;55.046;38.838;2022-12-19T18:01:26;25.70;;;14.45;;
68455;SDS011;55437;55.046;38.838;2022-12-19T18:03:55;19.08;;;9.45;;
68455;SDS011;55437;55.046;38.838;2022-12-19T18:06:23;17.40;;;8.55;;
68455;SDS011;55437;55.046;38.838;2022-12-19T18:08:49;21.92;;;11.55;;
68455;SDS011;55437;55.046;38.838;2022-12-19T18:13:45;24.25;;;10.75;;
68455;SDS011;55437;55.046;38.838;2022-12-19T18:16:12;19.90;;;9.68;;
68455;SDS011;55437;55.046;38.838;2022-12-19T18:18:40;20.30;;;11.55;;
68455;SDS011;55437;55.046;38.838;2022-12-19T18:21:08;22.15;;;10.15;;
68455;SDS011;55437;55.046;38.838;2022-12-19T18:23:41;21.85;;;9.57;;
68455;SDS011;55437;55.046;38.838;2022-12-19T18:26:08;16.10;;;8.82;;
68455;SDS011;55437;55.046;38.838;2022-12-19T18:28:35;21.27;;;10.77;;
68455;SDS011;55437;55.046;38.838;2022-12-19T18:31:02;18.08;;;8.60;;
68455;SDS011;55437;55.046;38.838;2022-12-19T18:33:38;19.00;;;7.80;;
68455;SDS011;55437;55.046;38.838;2022-12-19T18:36:06;16.27;;;8.27;;
68455;SDS011;55437;55.046;38.838;2022-12-19T18:38:39;16.42;;;8.60;;
68455;SDS011;55437;55.046;38.838;2022-12-19T18:41:04;19.50;;;9.38;;
68455;SDS011;55437;55.046;38.838;2022-12-19T18:43:33;17.55;;;10.10;;
68455;SDS011;55437;55.046;38.838;2022-12-19T18:45:59;16.38;;;8.95;;
68455;SDS011;55437;55.046;38.838;2022-12-19T18:48:25;17.40;;;9.77;;
68455;SDS011;55437;55.046;38.838;2022-12-19T18:50:54;17.77;;;8.98;;
68455;SDS011;55437;55.046;38.838;2022-12-19T18:53:21;17.58;;;8.15;;
68455;SDS011;55437;55.046;38.838;2022-12-19T18:55:49;17.27;;;8.65;;
68455;SDS011;55437;55.046;38.838;2022-12-19T18:58:16;18.27;;;9.05;;
68455;SDS011;55437;55.046;38.838;2022-12-19T19:00:42;19.42;;;8.05;;
68455;SDS011;55437;55.046;38.838;2022-12-19T19:03:12;17.52;;;8.00;;
68455;SDS011;55437;55.046;38.838;2022-12-19T19:05:41;16.80;;;8.75;;
68455;SDS011;55437;55.046;38.838;2022-12-19T19:10:59;15.23;;;7.55;;
68455;SDS011;55437;55.046;38.838;2022-12-19T19:13:25;13.52;;;7.45;;
68455;SDS011;55437;55.046;38.838;2022-12-19T19:15:52;14.98;;;9.10;;
68455;SDS011;55437;55.046;38.838;2022-12-19T19:18:22;15.23;;;7.68;;
68455;SDS011;55437;55.046;38.838;2022-12-19T19:20:54;15.45;;;9.48;;
68455;SDS011;55437;55.046;38.838;2022-12-19T19:23:21;18.58;;;9.05;;
68455;SDS011;55437;55.046;38.838;2022-12-19T19:25:51;16.70;;;7.88;;
68455;SDS011;55437;55.046;38.838;2022-12-19T19:28:17;17.65;;;8.30;;
68455;SDS011;55437;55.046;38.838;2022-12-19T19:30:43;16.25;;;8.10;;
68455;SDS011;55437;55.046;38.838;2022-12-19T19:33:14;16.58;;;7.97;;
68455;SDS011;55437;55.046;38.838;2022-12-19T19:35:44;15.25;;;7.45;;
68455;SDS011;55437;55.046;38.838;2022-12-19T19:38:12;17.13;;;9.35;;
68455;SDS011;55437;55.046;38.838;2022-12-19T19:40:40;13.18;;;7.03;;
68455;SDS011;55437;55.046;38.838;2022-12-19T19:43:06;16.40;;;7.90;;
68455;SDS011;55437;55.046;38.838;2022-12-19T19:45:32;14.70;;;7.53;;
68455;SDS011;55437;55.046;38.838;2022-12-19T19:48:04;13.43;;;5.90;;
68455;SDS011;55437;55.046;38.838;2022-12-19T19:50:30;14.85;;;7.13;;
68455;SDS011;55437;55.046;38.838;2022-12-19T19:52:57;16.60;;;7.90;;
68455;SDS011;55437;55.046;38.838;2022-12-19T19:55:23;17.50;;;8.32;;
68455;SDS011;55437;55.046;38.838;2022-12-19T19:57:49;15.95;;;7.75;;
68455;SDS011;55437;55.046;38.838;2022-12-19T20:00:15;14.07;;;5.82;;
68455;SDS011;55437;55.046;38.838;2022-12-19T20:02:42;13.75;;;7.20;;
68455;SDS011;55437;55.046;38.838;2022-12-19T20:05:08;18.58;;;8.40;;
68455;SDS011;55437;55.046;38.838;2022-12-19T20:07:35;15.25;;;7.82;;
68455;SDS011;55437;55.046;38.838;2022-12-19T20:10:02;13.63;;;7.25;;
68455;SDS011;55437;55.046;38.838;2022-12-19T20:12:29;15.63;;;7.93;;
68455;SDS011;55437;55.046;38.838;2022-12-19T20:14:55;17.10;;;7.32;;
68455;SDS011;55437;55.046;38.838;2022-12-19T20:17:21;14.82;;;6.63;;
68455;SDS011;55437;55.046;38.838;2022-12-19T20:19:46;11.38;;;6.53;;
68455;SDS011;55437;55.046;38.838;2022-12-19T20:22:12;13.98;;;7.28;;
68455;SDS011;55437;55.046;38.838;2022-12-19T20:24:38;16.35;;;7.43;;
68455;SDS011;55437;55.046;38.838;2022-12-19T20:27:03;16.50;;;7.13;;
68455;SDS011;55437;55.046;38.838;2022-12-19T20:29:29;16.08;;;7.78;;
68455;SDS011;55437;55.046;38.838;2022-12-19T20:31:55;13.63;;;6.90;;
68455;SDS011;55437;55.046;38.838;2022-12-19T20:34:21;13.90;;;7.70;;
68455;SDS011;55437;55.046;38.838;2022-12-19T20:36:47;14.40;;;5.75;;
68455;SDS011;55437;55.046;38.838;2022-12-19T20:39:13;15.02;;;8.23;;
68455;SDS011;55437;55.046;38.838;2022-12-19T20:41:40;14.15;;;7.75;;
68455;SDS011;55437;55.046;38.838;2022-12-19T20:44:06;15.75;;;7.28;;
68455;SDS011;55437;55.046;38.838;2022-12-19T20:46:32;14.25;;;7.35;;
68455;SDS011;55437;55.046;38.838;2022-12-19T20:48:58;16.35;;;6.57;;
68455;SDS011;55437;55.046;38.838;2022-12-19T20:51:23;14.63;;;8.00;;
68455;SDS011;55437;55.046;38.838;2022-12-19T20:53:52;11.43;;;6.45;;
68455;SDS011;55437;55.046;38.838;2022-12-19T20:56:19;13.27;;;7.32;;
68455;SDS011;55437;55.046;38.838;2022-12-19T20:58:47;14.98;;;7.20;;